sensor_id;sensor_type;location;lat;lon;timestamp;P1;durP1;ratioP1;P2;durP2;ratioP2
23472;SDS011;11909;52.516;13.564;2023-04-25T00:00:22;8.57;;;3.00;;
23472;SDS011;11909;52.516;13.564;2023-04-25T00:02:51;4.93;;;3.30;;
23472;SDS011;11909;52.516;13.564;2023-04-25T00:05:19;4.18;;;2.97;;
23472;SDS011;11909;52.516;13.564;2023-04-25T00:07:49;6.32;;;2.65;;
23472;SDS011;11909;52.516;13.564;2023-04-25T00:10:17;3.80;;;2.70;;
23472;SDS011;11909;52.516;13.564;2023-04-25T00:12:45;3.78;;;3.10;;
23472;SDS011;11909;52.516;13.564;2023-04-25T00:15:14;4.75;;;2.70;;
23472;SDS011;11909;52.516;13.564;2023-04-25T00:17:42;6.18;;;2.92;;
23472;SDS011;11909;52.516;13.564;2023-04-25T00:20:13;6.78;;;2.80;;
23472;SDS011;11909;52.516;13.564;2023-04-25T00:22:41;5.88;;;2.92;;
23472;SDS011;11909;52.516;13.564;2023-04-25T00:25:09;3.53;;;2.65;;
23472;SDS011;11909;52.516;13.564;2023-04-25T00:27:36;3.13;;;2.30;;
23472;SDS011;11909;52.516;13.564;2023-04-25T00:30:05;5.68;;;2.40;;
23472;SDS011;11909;52.516;13.564;2023-04-25T00:32:34;4.15;;;2.25;;
23472;SDS011;11909;52.516;13.564;2023-04-25T00:35:01;4.25;;;2.25;;
23472;SDS011;11909;52.516;13.564;2023-04-25T00:37:31;5.95;;;2.72;;
23472;SDS011;11909;52.516;13.564;2023-04-25T00:39:58;7.47;;;2.72;;
23472;SDS011;11909;52.516;13.564;2023-04-25T00:42:26;8.80;;;2.60;;
23472;SDS011;11909;52.516;13.564;2023-04-25T00:44:56;7.20;;;2.72;;
23472;SDS011;11909;52.516;13.564;2023-04-25T00:47:24;6.45;;;3.13;;
23472;SDS011;11909;52.516;13.564;2023-04-25T00:49:53;7.05;;;2.85;;
23472;SDS011;11909;52.516;13.564;2023-04-25T00:52:20;8.45;;;2.70;;
23472;SDS011;11909;52.516;13.564;2023-04-25T00:54:49;6.57;;;2.40;;
23472;SDS011;11909;52.516;13.564;2023-04-25T00:57:17;6.30;;;2.83;;
23472;SDS011;11909;52.516;13.564;2023-04-25T00:59:45;4.75;;;2.40;;
23472;SDS011;11909;52.516;13.564;2023-04-25T01:02:13;5.20;;;2.83;;
23472;SDS011;11909;52.516;13.564;2023-04-25T01:04:41;6.10;;;2.55;;
23472;SDS011;11909;52.516;13.564;2023-04-25T01:07:09;6.78;;;2.67;;
23472;SDS011;11909;52.516;13.564;2023-04-25T01:09:37;5.35;;;2.47;;
23472;SDS011;11909;52.516;13.564;2023-04-25T01:12:07;6.63;;;3.00;;
23472;SDS011;11909;52.516;13.564;2023-04-25T01:14:35;8.98;;;2.92;;
23472;SDS011;11909;52.516;13.564;2023-04-25T01:17:02;7.85;;;2.55;;
23472;SDS011;11909;52.516;13.564;2023-04-25T01:19:31;5.40;;;2.88;;
23472;SDS011;11909;52.516;13.564;2023-04-25T01:22:01;6.05;;;2.90;;
23472;SDS011;11909;52.516;13.564;2023-04-25T01:24:30;8.43;;;3.17;;
23472;SDS011;11909;52.516;13.564;2023-04-25T01:26:59;7.45;;;2.78;;
23472;SDS011;11909;52.516;13.564;2023-04-25T01:29:28;9.97;;;3.47;;
23472;SDS011;11909;52.516;13.564;2023-04-25T01:31:56;6.72;;;3.55;;
23472;SDS011;11909;52.516;13.564;2023-04-25T01:34:26;13.65;;;3.35;;
23472;SDS011;11909;52.516;13.564;2023-04-25T01:36:53;8.77;;;3.75;;
23472;SDS011;11909;52.516;13.564;2023-04-25T01:39:22;9.35;;;3.72;;
23472;SDS011;11909;52.516;13.564;2023-04-25T01:41:51;5.60;;;2.83;;
23472;SDS011;11909;52.516;13.564;2023-04-25T01:44:19;10.27;;;3.08;;
23472;SDS011;11909;52.516;13.564;2023-04-25T01:46:47;7.07;;;3.17;;
23472;SDS011;11909;52.516;13.564;2023-04-25T01:49:14;8.02;;;3.30;;
23472;SDS011;11909;52.516;13.564;2023-04-25T01:51:42;4.07;;;2.90;;
23472;SDS011;11909;52.516;13.564;2023-04-25T01:54:10;8.55;;;3.58;;
23472;SDS011;11909;52.516;13.564;2023-04-25T01:56:40;19.33;;;4.47;;
23472;SDS011;11909;52.516;13.564;2023-04-25T01:59:07;10.70;;;3.08;;
23472;SDS011;11909;52.516;13.564;2023-04-25T02:01:36;9.88;;;3.55;;
23472;SDS011;11909;52.516;13.564;2023-04-25T02:04:03;10.40;;;3.92;;
23472;SDS011;11909;52.516;13.564;2023-04-25T02:06:32;8.20;;;3.30;;
23472;SDS011;11909;52.516;13.564;2023-04-25T02:08:59;6.68;;;3.20;;
23472;SDS011;11909;52.516;13.564;2023-04-25T02:11:27;5.85;;;3.25;;
23472;SDS011;11909;52.516;13.564;2023-04-25T02:13:57;8.05;;;3.35;;
23472;SDS011;11909;52.516;13.564;2023-04-25T02:16:24;7.90;;;4.28;;
23472;SDS011;11909;52.516;13.564;2023-04-25T02:18:52;7.22;;;3.75;;
23472;SDS011;11909;52.516;13.564;2023-04-25T02:21:20;11.57;;;4.28;;
23472;SDS011;11909;52.516;13.564;2023-04-25T02:23:48;14.90;;;4.47;;
23472;SDS011;11909;52.516;13.564;2023-04-25T02:26:18;13.18;;;3.78;;
23472;SDS011;11909;52.516;13.564;2023-04-25T02:28:47;8.38;;;4.18;;
23472;SDS011;11909;52.516;13.564;2023-04-25T02:31:16;8.02;;;3.95;;
23472;SDS011;11909;52.516;13.564;2023-04-25T02:33:44;11.55;;;4.00;;
23472;SDS011;11909;52.516;13.564;2023-04-25T02:36:12;9.43;;;3.95;;
23472;SDS011;11909;52.516;13.564;2023-04-25T02:38:40;10.70;;;4.10;;
23472;SDS011;11909;52.516;13.564;2023-04-25T02:41:08;8.23;;;4.05;;
23472;SDS011;11909;52.516;13.564;2023-04-25T02:43:36;10.63;;;4.00;;
23472;SDS011;11909;52.516;13.564;2023-04-25T02:46:04;7.45;;;3.83;;
23472;SDS011;11909;52.516;13.564;2023-04-25T02:48:33;9.57;;;4.07;;
23472;SDS011;11909;52.516;13.564;2023-04-25T02:51:00;10.52;;;3.70;;
23472;SDS011;11909;52.516;13.564;2023-04-25T02:53:28;6.47;;;3.45;;
23472;SDS011;11909;52.516;13.564;2023-04-25T02:55:56;9.95;;;3.60;;
23472;SDS011;11909;52.516;13.564;2023-04-25T02:58:25;11.85;;;3.90;;
23472;SDS011;11909;52.516;13.564;2023-04-25T03:00:53;14.60;;;3.67;;
23472;SDS011;11909;52.516;13.564;2023-04-25T03:03:21;7.68;;;4.07;;
23472;SDS011;11909;52.516;13.564;2023-04-25T03:05:50;7.03;;;3.80;;
23472;SDS011;11909;52.516;13.564;2023-04-25T03:08:19;6.40;;;4.10;;
23472;SDS011;11909;52.516;13.564;2023-04-25T03:10:46;9.43;;;4.10;;
23472;SDS011;11909;52.516;13.564;2023-04-25T03:13:16;13.52;;;4.35;;
23472;SDS011;11909;52.516;13.564;2023-04-25T03:15:44;9.18;;;3.63;;
23472;SDS011;11909;52.516;13.564;2023-04-25T03:18:12;12.52;;;4.75;;
23472;SDS011;11909;52.516;13.564;2023-04-25T03:20:40;9.02;;;4.00;;
23472;SDS011;11909;52.516;13.564;2023-04-25T03:23:10;8.85;;;4.25;;
23472;SDS011;11909;52.516;13.564;2023-04-25T03:25:38;11.73;;;3.92;;
23472;SDS011;11909;52.516;13.564;2023-04-25T03:28:06;6.10;;;4.22;;
23472;SDS011;11909;52.516;13.564;2023-04-25T03:30:34;7.93;;;3.80;;
23472;SDS011;11909;52.516;13.564;2023-04-25T03:33:02;8.32;;;4.63;;
23472;SDS011;11909;52.516;13.564;2023-04-25T03:35:30;8.63;;;4.40;;
23472;SDS011;11909;52.516;13.564;2023-04-25T03:37:57;7.78;;;4.47;;
23472;SDS011;11909;52.516;13.564;2023-04-25T03:40:27;7.63;;;4.35;;
23472;SDS011;11909;52.516;13.564;2023-04-25T03:42:55;10.73;;;4.35;;
23472;SDS011;11909;52.516;13.564;2023-04-25T03:45:23;6.85;;;4.20;;
23472;SDS011;11909;52.516;13.564;2023-04-25T03:47:50;12.20;;;4.72;;
23472;SDS011;11909;52.516;13.564;2023-04-25T03:50:19;8.90;;;4.25;;
23472;SDS011;11909;52.516;13.564;2023-04-25T03:52:46;7.85;;;4.20;;
23472;SDS011;11909;52.516;13.564;2023-04-25T03:55:14;13.85;;;4.55;;
23472;SDS011;11909;52.516;13.564;2023-04-25T03:57:44;10.82;;;4.80;;
23472;SDS011;11909;52.516;13.564;2023-04-25T04:00:12;9.68;;;4.32;;
23472;SDS011;11909;52.516;13.564;2023-04-25T04:02:41;13.98;;;4.82;;
23472;SDS011;11909;52.516;13.564;2023-04-25T04:05:11;9.97;;;4.37;;
23472;SDS011;11909;52.516;13.564;2023-04-25T04:07:39;15.40;;;4.70;;
23472;SDS011;11909;52.516;13.564;2023-04-25T04:10:09;12.48;;;4.55;;
23472;SDS011;11909;52.516;13.564;2023-04-25T04:12:37;11.05;;;4.50;;
23472;SDS011;11909;52.516;13.564;2023-04-25T04:15:07;9.15;;;4.45;;
23472;SDS011;11909;52.516;13.564;2023-04-25T04:17:35;8.27;;;3.83;;
23472;SDS011;11909;52.516;13.564;2023-04-25T04:20:04;7.95;;;4.10;;
23472;SDS011;11909;52.516;13.564;2023-04-25T04:25:02;8.75;;;4.32;;
23472;SDS011;11909;52.516;13.564;2023-04-25T04:27:32;10.65;;;4.70;;
23472;SDS011;11909;52.516;13.564;2023-04-25T04:30:00;22.83;;;10.13;;
23472;SDS011;11909;52.516;13.564;2023-04-25T04:32:30;11.93;;;4.68;;
23472;SDS011;11909;52.516;13.564;2023-04-25T04:34:59;10.53;;;4.80;;
23472;SDS011;11909;52.516;13.564;2023-04-25T04:37:27;9.32;;;3.92;;
23472;SDS011;11909;52.516;13.564;2023-04-25T04:39:54;8.50;;;3.88;;
23472;SDS011;11909;52.516;13.564;2023-04-25T04:42:22;6.88;;;3.78;;
23472;SDS011;11909;52.516;13.564;2023-04-25T04:44:51;8.85;;;3.88;;
23472;SDS011;11909;52.516;13.564;2023-04-25T04:47:21;9.10;;;4.25;;
23472;SDS011;11909;52.516;13.564;2023-04-25T04:49:51;9.55;;;4.07;;
23472;SDS011;11909;52.516;13.564;2023-04-25T04:52:19;13.10;;;4.47;;
23472;SDS011;11909;52.516;13.564;2023-04-25T04:54:47;10.15;;;4.28;;
23472;SDS011;11909;52.516;13.564;2023-04-25T04:57:15;8.32;;;4.18;;
23472;SDS011;11909;52.516;13.564;2023-04-25T04:59:43;9.48;;;3.65;;
23472;SDS011;11909;52.516;13.564;2023-04-25T05:02:12;8.60;;;4.07;;
23472;SDS011;11909;52.516;13.564;2023-04-25T05:04:40;7.40;;;3.90;;
23472;SDS011;11909;52.516;13.564;2023-04-25T05:07:09;7.70;;;3.47;;
23472;SDS011;11909;52.516;13.564;2023-04-25T05:09:38;7.47;;;3.38;;
23472;SDS011;11909;52.516;13.564;2023-04-25T05:12:06;15.23;;;3.78;;
23472;SDS011;11909;52.516;13.564;2023-04-25T05:14:33;9.98;;;3.80;;
23472;SDS011;11909;52.516;13.564;2023-04-25T05:17:01;11.50;;;4.20;;
23472;SDS011;11909;52.516;13.564;2023-04-25T05:19:31;9.15;;;4.13;;
23472;SDS011;11909;52.516;13.564;2023-04-25T05:21:59;10.77;;;4.03;;
23472;SDS011;11909;52.516;13.564;2023-04-25T05:24:28;8.73;;;4.10;;
23472;SDS011;11909;52.516;13.564;2023-04-25T05:26:56;10.80;;;4.45;;
23472;SDS011;11909;52.516;13.564;2023-04-25T05:29:25;12.52;;;4.47;;
23472;SDS011;11909;52.516;13.564;2023-04-25T05:31:52;8.70;;;4.35;;
23472;SDS011;11909;52.516;13.564;2023-04-25T05:34:21;6.95;;;3.80;;
23472;SDS011;11909;52.516;13.564;2023-04-25T05:36:49;8.80;;;4.60;;
23472;SDS011;11909;52.516;13.564;2023-04-25T05:39:16;5.25;;;4.22;;
23472;SDS011;11909;52.516;13.564;2023-04-25T05:41:46;8.95;;;3.90;;
23472;SDS011;11909;52.516;13.564;2023-04-25T05:44:13;10.27;;;3.92;;
23472;SDS011;11909;52.516;13.564;2023-04-25T05:46:42;7.03;;;3.83;;
23472;SDS011;11909;52.516;13.564;2023-04-25T05:49:10;12.85;;;4.13;;
23472;SDS011;11909;52.516;13.564;2023-04-25T05:51:37;9.55;;;3.75;;
23472;SDS011;11909;52.516;13.564;2023-04-25T05:54:05;10.80;;;4.65;;
23472;SDS011;11909;52.516;13.564;2023-04-25T05:56:34;7.60;;;3.78;;
23472;SDS011;11909;52.516;13.564;2023-04-25T05:59:03;7.90;;;4.57;;
23472;SDS011;11909;52.516;13.564;2023-04-25T06:01:32;11.18;;;4.18;;
23472;SDS011;11909;52.516;13.564;2023-04-25T06:04:00;9.70;;;4.57;;
23472;SDS011;11909;52.516;13.564;2023-04-25T06:06:28;13.57;;;4.43;;
23472;SDS011;11909;52.516;13.564;2023-04-25T06:08:56;8.93;;;4.78;;
23472;SDS011;11909;52.516;13.564;2023-04-25T06:11:24;8.82;;;4.53;;
23472;SDS011;11909;52.516;13.564;2023-04-25T06:13:52;7.63;;;4.32;;
23472;SDS011;11909;52.516;13.564;2023-04-25T06:16:22;11.63;;;4.82;;
23472;SDS011;11909;52.516;13.564;2023-04-25T06:18:52;10.55;;;4.97;;
23472;SDS011;11909;52.516;13.564;2023-04-25T06:21:20;9.32;;;4.80;;
23472;SDS011;11909;52.516;13.564;2023-04-25T06:23:48;7.63;;;4.80;;
23472;SDS011;11909;52.516;13.564;2023-04-25T06:26:16;11.52;;;4.85;;
23472;SDS011;11909;52.516;13.564;2023-04-25T06:28:44;14.05;;;5.60;;
23472;SDS011;11909;52.516;13.564;2023-04-25T06:31:12;14.95;;;5.35;;
23472;SDS011;11909;52.516;13.564;2023-04-25T06:33:41;12.80;;;5.35;;
23472;SDS011;11909;52.516;13.564;2023-04-25T06:36:10;10.38;;;4.82;;
23472;SDS011;11909;52.516;13.564;2023-04-25T06:38:37;8.63;;;4.72;;
23472;SDS011;11909;52.516;13.564;2023-04-25T06:41:06;9.18;;;4.85;;
23472;SDS011;11909;52.516;13.564;2023-04-25T06:43:34;10.43;;;4.63;;
23472;SDS011;11909;52.516;13.564;2023-04-25T06:46:01;9.75;;;5.35;;
23472;SDS011;11909;52.516;13.564;2023-04-25T06:48:29;13.50;;;4.88;;
23472;SDS011;11909;52.516;13.564;2023-04-25T06:50:59;11.77;;;5.13;;
23472;SDS011;11909;52.516;13.564;2023-04-25T06:53:26;9.18;;;5.03;;
23472;SDS011;11909;52.516;13.564;2023-04-25T06:55:54;13.48;;;5.63;;
23472;SDS011;11909;52.516;13.564;2023-04-25T06:58:23;12.02;;;5.22;;
23472;SDS011;11909;52.516;13.564;2023-04-25T07:00:52;10.05;;;5.22;;
23472;SDS011;11909;52.516;13.564;2023-04-25T07:03:20;13.52;;;5.22;;
23472;SDS011;11909;52.516;13.564;2023-04-25T07:05:48;10.57;;;5.30;;
23472;SDS011;11909;52.516;13.564;2023-04-25T07:08:18;12.27;;;5.60;;
23472;SDS011;11909;52.516;13.564;2023-04-25T07:10:46;11.60;;;4.88;;
23472;SDS011;11909;52.516;13.564;2023-04-25T07:13:15;11.10;;;5.25;;
23472;SDS011;11909;52.516;13.564;2023-04-25T07:15:43;5.68;;;4.40;;
23472;SDS011;11909;52.516;13.564;2023-04-25T07:18:11;10.63;;;4.70;;
23472;SDS011;11909;52.516;13.564;2023-04-25T07:20:39;11.57;;;5.45;;
23472;SDS011;11909;52.516;13.564;2023-04-25T07:23:07;11.63;;;5.15;;
23472;SDS011;11909;52.516;13.564;2023-04-25T07:25:36;13.13;;;4.80;;
23472;SDS011;11909;52.516;13.564;2023-04-25T07:28:04;9.45;;;5.03;;
23472;SDS011;11909;52.516;13.564;2023-04-25T07:30:31;7.80;;;4.75;;
23472;SDS011;11909;52.516;13.564;2023-04-25T07:33:01;9.30;;;4.80;;
23472;SDS011;11909;52.516;13.564;2023-04-25T07:35:29;8.70;;;5.25;;
23472;SDS011;11909;52.516;13.564;2023-04-25T07:37:57;11.60;;;4.68;;
23472;SDS011;11909;52.516;13.564;2023-04-25T07:40:25;11.23;;;5.03;;
23472;SDS011;11909;52.516;13.564;2023-04-25T07:42:55;9.05;;;4.50;;
23472;SDS011;11909;52.516;13.564;2023-04-25T07:45:23;8.02;;;4.00;;
23472;SDS011;11909;52.516;13.564;2023-04-25T07:47:51;10.75;;;4.35;;
23472;SDS011;11909;52.516;13.564;2023-04-25T07:50:19;14.55;;;4.10;;
23472;SDS011;11909;52.516;13.564;2023-04-25T07:52:47;11.57;;;4.40;;
23472;SDS011;11909;52.516;13.564;2023-04-25T07:55:15;9.55;;;4.22;;
23472;SDS011;11909;52.516;13.564;2023-04-25T07:57:43;14.18;;;4.45;;
23472;SDS011;11909;52.516;13.564;2023-04-25T08:00:14;9.65;;;4.13;;
23472;SDS011;11909;52.516;13.564;2023-04-25T08:02:42;11.00;;;4.45;;
23472;SDS011;11909;52.516;13.564;2023-04-25T08:05:10;9.68;;;4.68;;
23472;SDS011;11909;52.516;13.564;2023-04-25T08:07:41;14.75;;;4.30;;
23472;SDS011;11909;52.516;13.564;2023-04-25T08:10:09;11.43;;;4.60;;
23472;SDS011;11909;52.516;13.564;2023-04-25T08:12:37;10.77;;;4.47;;
23472;SDS011;11909;52.516;13.564;2023-04-25T08:15:06;18.52;;;4.60;;
23472;SDS011;11909;52.516;13.564;2023-04-25T08:17:37;14.10;;;3.90;;
23472;SDS011;11909;52.516;13.564;2023-04-25T08:20:05;16.10;;;4.60;;
23472;SDS011;11909;52.516;13.564;2023-04-25T08:22:35;17.38;;;4.32;;
23472;SDS011;11909;52.516;13.564;2023-04-25T08:25:03;11.38;;;4.25;;
23472;SDS011;11909;52.516;13.564;2023-04-25T08:27:31;13.75;;;4.20;;
23472;SDS011;11909;52.516;13.564;2023-04-25T08:29:59;13.65;;;3.97;;
23472;SDS011;11909;52.516;13.564;2023-04-25T08:32:29;18.40;;;3.75;;
23472;SDS011;11909;52.516;13.564;2023-04-25T08:34:59;17.67;;;4.22;;
23472;SDS011;11909;52.516;13.564;2023-04-25T08:37:27;19.15;;;4.05;;
23472;SDS011;11909;52.516;13.564;2023-04-25T08:39:55;13.90;;;3.90;;
23472;SDS011;11909;52.516;13.564;2023-04-25T08:42:24;20.88;;;4.20;;
23472;SDS011;11909;52.516;13.564;2023-04-25T08:44:54;9.43;;;3.53;;
23472;SDS011;11909;52.516;13.564;2023-04-25T08:47:22;13.45;;;4.03;;
23472;SDS011;11909;52.516;13.564;2023-04-25T08:49:51;15.45;;;4.25;;
23472;SDS011;11909;52.516;13.564;2023-04-25T08:52:22;23.30;;;4.28;;
23472;SDS011;11909;52.516;13.564;2023-04-25T08:54:52;16.45;;;4.72;;
23472;SDS011;11909;52.516;13.564;2023-04-25T08:57:23;20.10;;;4.32;;
23472;SDS011;11909;52.516;13.564;2023-04-25T08:59:51;17.70;;;3.75;;
23472;SDS011;11909;52.516;13.564;2023-04-25T09:02:20;22.88;;;4.03;;
23472;SDS011;11909;52.516;13.564;2023-04-25T09:04:48;22.35;;;4.35;;
23472;SDS011;11909;52.516;13.564;2023-04-25T09:07:17;15.80;;;3.80;;
23472;SDS011;11909;52.516;13.564;2023-04-25T09:09:48;15.25;;;4.15;;
23472;SDS011;11909;52.516;13.564;2023-04-25T09:12:16;19.25;;;4.05;;
23472;SDS011;11909;52.516;13.564;2023-04-25T09:17:28;15.68;;;3.70;;
23472;SDS011;11909;52.516;13.564;2023-04-25T09:20:05;20.23;;;4.25;;
23472;SDS011;11909;52.516;13.564;2023-04-25T09:22:34;14.35;;;3.78;;
23472;SDS011;11909;52.516;13.564;2023-04-25T09:25:07;13.35;;;3.65;;
23472;SDS011;11909;52.516;13.564;2023-04-25T09:27:36;11.70;;;3.50;;
23472;SDS011;11909;52.516;13.564;2023-04-25T09:30:04;14.70;;;3.50;;
23472;SDS011;11909;52.516;13.564;2023-04-25T09:32:33;13.25;;;3.63;;
23472;SDS011;11909;52.516;13.564;2023-04-25T09:35:00;13.48;;;3.30;;
23472;SDS011;11909;52.516;13.564;2023-04-25T09:37:49;14.43;;;3.35;;
23472;SDS011;11909;52.516;13.564;2023-04-25T09:40:19;11.90;;;3.72;;
23472;SDS011;11909;52.516;13.564;2023-04-25T09:42:47;15.82;;;3.58;;
23472;SDS011;11909;52.516;13.564;2023-04-25T09:45:15;13.48;;;3.72;;
23472;SDS011;11909;52.516;13.564;2023-04-25T09:47:43;14.85;;;3.28;;
23472;SDS011;11909;52.516;13.564;2023-04-25T09:50:14;17.02;;;3.55;;
23472;SDS011;11909;52.516;13.564;2023-04-25T09:52:43;14.80;;;3.47;;
23472;SDS011;11909;52.516;13.564;2023-04-25T09:55:12;11.38;;;2.97;;
23472;SDS011;11909;52.516;13.564;2023-04-25T09:57:41;12.02;;;3.10;;
23472;SDS011;11909;52.516;13.564;2023-04-25T10:00:11;14.32;;;3.33;;
23472;SDS011;11909;52.516;13.564;2023-04-25T10:02:39;10.25;;;2.95;;
23472;SDS011;11909;52.516;13.564;2023-04-25T10:05:11;7.97;;;2.42;;
23472;SDS011;11909;52.516;13.564;2023-04-25T10:07:39;7.80;;;2.88;;
23472;SDS011;11909;52.516;13.564;2023-04-25T10:10:08;11.27;;;2.92;;
23472;SDS011;11909;52.516;13.564;2023-04-25T10:12:38;12.85;;;3.85;;
23472;SDS011;11909;52.516;13.564;2023-04-25T10:15:08;13.45;;;3.13;;
23472;SDS011;11909;52.516;13.564;2023-04-25T10:17:36;8.32;;;2.33;;
23472;SDS011;11909;52.516;13.564;2023-04-25T10:20:06;10.98;;;2.65;;
23472;SDS011;11909;52.516;13.564;2023-04-25T10:22:37;12.82;;;2.75;;
23472;SDS011;11909;52.516;13.564;2023-04-25T10:25:08;12.00;;;2.60;;
23472;SDS011;11909;52.516;13.564;2023-04-25T10:27:38;9.02;;;2.28;;
23472;SDS011;11909;52.516;13.564;2023-04-25T10:30:08;17.02;;;3.22;;
23472;SDS011;11909;52.516;13.564;2023-04-25T10:32:39;13.45;;;3.03;;
23472;SDS011;11909;52.516;13.564;2023-04-25T10:35:12;12.15;;;2.95;;
23472;SDS011;11909;52.516;13.564;2023-04-25T10:37:58;14.10;;;2.83;;
23472;SDS011;11909;52.516;13.564;2023-04-25T10:40:27;11.35;;;2.30;;
23472;SDS011;11909;52.516;13.564;2023-04-25T10:42:55;11.88;;;3.08;;
23472;SDS011;11909;52.516;13.564;2023-04-25T10:45:24;10.93;;;2.63;;
23472;SDS011;11909;52.516;13.564;2023-04-25T10:47:53;10.73;;;2.75;;
23472;SDS011;11909;52.516;13.564;2023-04-25T10:50:22;11.77;;;2.70;;
23472;SDS011;11909;52.516;13.564;2023-04-25T10:53:14;9.27;;;2.47;;
23472;SDS011;11909;52.516;13.564;2023-04-25T10:55:49;12.27;;;3.00;;
23472;SDS011;11909;52.516;13.564;2023-04-25T10:58:20;10.23;;;2.38;;
23472;SDS011;11909;52.516;13.564;2023-04-25T11:00:51;12.65;;;2.92;;
23472;SDS011;11909;52.516;13.564;2023-04-25T11:03:40;10.73;;;2.33;;
23472;SDS011;11909;52.516;13.564;2023-04-25T11:06:14;11.60;;;3.00;;
23472;SDS011;11909;52.516;13.564;2023-04-25T11:08:49;11.82;;;2.80;;
23472;SDS011;11909;52.516;13.564;2023-04-25T11:11:19;10.50;;;2.43;;
23472;SDS011;11909;52.516;13.564;2023-04-25T11:13:47;9.80;;;2.83;;
23472;SDS011;11909;52.516;13.564;2023-04-25T11:16:18;11.85;;;2.70;;
23472;SDS011;11909;52.516;13.564;2023-04-25T11:18:49;8.80;;;2.65;;
23472;SDS011;11909;52.516;13.564;2023-04-25T11:21:17;16.52;;;3.35;;
23472;SDS011;11909;52.516;13.564;2023-04-25T11:23:46;13.02;;;2.83;;
23472;SDS011;11909;52.516;13.564;2023-04-25T11:26:14;8.75;;;2.70;;
23472;SDS011;11909;52.516;13.564;2023-04-25T11:28:44;12.75;;;3.47;;
23472;SDS011;11909;52.516;13.564;2023-04-25T11:31:13;12.38;;;3.40;;
23472;SDS011;11909;52.516;13.564;2023-04-25T11:33:42;8.02;;;2.65;;
23472;SDS011;11909;52.516;13.564;2023-04-25T11:36:11;14.40;;;2.80;;
23472;SDS011;11909;52.516;13.564;2023-04-25T11:38:40;13.52;;;2.55;;
23472;SDS011;11909;52.516;13.564;2023-04-25T11:41:08;11.93;;;2.30;;
23472;SDS011;11909;52.516;13.564;2023-04-25T11:43:36;15.23;;;2.72;;
23472;SDS011;11909;52.516;13.564;2023-04-25T11:46:08;7.35;;;2.40;;
23472;SDS011;11909;52.516;13.564;2023-04-25T11:48:38;9.90;;;2.90;;
23472;SDS011;11909;52.516;13.564;2023-04-25T11:51:08;8.13;;;2.38;;
23472;SDS011;11909;52.516;13.564;2023-04-25T11:53:36;8.25;;;2.40;;
23472;SDS011;11909;52.516;13.564;2023-04-25T11:56:09;6.68;;;2.03;;
23472;SDS011;11909;52.516;13.564;2023-04-25T11:58:54;11.52;;;2.50;;
23472;SDS011;11909;52.516;13.564;2023-04-25T12:01:26;11.65;;;2.63;;
23472;SDS011;11909;52.516;13.564;2023-04-25T12:03:58;12.68;;;2.88;;
23472;SDS011;11909;52.516;13.564;2023-04-25T12:06:39;12.55;;;2.40;;
23472;SDS011;11909;52.516;13.564;2023-04-25T12:09:08;7.22;;;2.22;;
23472;SDS011;11909;52.516;13.564;2023-04-25T12:11:43;8.55;;;2.60;;
23472;SDS011;11909;52.516;13.564;2023-04-25T12:14:12;8.18;;;2.22;;
23472;SDS011;11909;52.516;13.564;2023-04-25T12:16:50;7.53;;;2.40;;
23472;SDS011;11909;52.516;13.564;2023-04-25T12:19:19;14.97;;;3.17;;
23472;SDS011;11909;52.516;13.564;2023-04-25T12:21:49;7.90;;;2.30;;
23472;SDS011;11909;52.516;13.564;2023-04-25T12:24:25;8.13;;;2.15;;
23472;SDS011;11909;52.516;13.564;2023-04-25T12:26:58;8.60;;;2.70;;
23472;SDS011;11909;52.516;13.564;2023-04-25T12:29:28;9.73;;;2.45;;
23472;SDS011;11909;52.516;13.564;2023-04-25T12:32:14;10.93;;;2.70;;
23472;SDS011;11909;52.516;13.564;2023-04-25T12:34:42;8.43;;;2.30;;
23472;SDS011;11909;52.516;13.564;2023-04-25T12:37:12;6.25;;;2.28;;
23472;SDS011;11909;52.516;13.564;2023-04-25T12:39:40;7.95;;;2.38;;
23472;SDS011;11909;52.516;13.564;2023-04-25T12:42:09;6.78;;;2.50;;
23472;SDS011;11909;52.516;13.564;2023-04-25T12:44:39;8.07;;;2.15;;
23472;SDS011;11909;52.516;13.564;2023-04-25T12:47:07;8.05;;;2.10;;
23472;SDS011;11909;52.516;13.564;2023-04-25T12:49:36;9.20;;;2.45;;
23472;SDS011;11909;52.516;13.564;2023-04-25T12:52:04;4.80;;;1.88;;
23472;SDS011;11909;52.516;13.564;2023-04-25T12:54:33;8.32;;;2.75;;
23472;SDS011;11909;52.516;13.564;2023-04-25T12:57:02;4.65;;;1.90;;
23472;SDS011;11909;52.516;13.564;2023-04-25T12:59:30;6.50;;;2.20;;
23472;SDS011;11909;52.516;13.564;2023-04-25T13:01:58;10.02;;;2.10;;
23472;SDS011;11909;52.516;13.564;2023-04-25T13:04:27;7.60;;;2.13;;
23472;SDS011;11909;52.516;13.564;2023-04-25T13:06:55;10.32;;;2.53;;
23472;SDS011;11909;52.516;13.564;2023-04-25T13:09:23;7.13;;;2.05;;
23472;SDS011;11909;52.516;13.564;2023-04-25T13:11:52;9.05;;;2.30;;
23472;SDS011;11909;52.516;13.564;2023-04-25T13:14:24;11.13;;;2.58;;
23472;SDS011;11909;52.516;13.564;2023-04-25T13:16:53;8.82;;;2.10;;
23472;SDS011;11909;52.516;13.564;2023-04-25T13:19:21;6.30;;;1.65;;
23472;SDS011;11909;52.516;13.564;2023-04-25T13:21:49;5.03;;;1.58;;
23472;SDS011;11909;52.516;13.564;2023-04-25T13:24:17;3.53;;;1.83;;
23472;SDS011;11909;52.516;13.564;2023-04-25T13:26:45;5.00;;;1.83;;
23472;SDS011;11909;52.516;13.564;2023-04-25T13:29:14;5.70;;;1.95;;
23472;SDS011;11909;52.516;13.564;2023-04-25T13:31:42;8.57;;;2.28;;
23472;SDS011;11909;52.516;13.564;2023-04-25T13:34:09;6.53;;;2.13;;
23472;SDS011;11909;52.516;13.564;2023-04-25T13:36:38;6.30;;;1.88;;
23472;SDS011;11909;52.516;13.564;2023-04-25T13:39:07;7.13;;;2.15;;
23472;SDS011;11909;52.516;13.564;2023-04-25T13:41:35;8.00;;;2.08;;
23472;SDS011;11909;52.516;13.564;2023-04-25T13:44:03;7.85;;;2.30;;
23472;SDS011;11909;52.516;13.564;2023-04-25T13:46:33;5.65;;;1.88;;
23472;SDS011;11909;52.516;13.564;2023-04-25T13:51:40;9.88;;;1.77;;
23472;SDS011;11909;52.516;13.564;2023-04-25T13:54:08;6.72;;;2.30;;
23472;SDS011;11909;52.516;13.564;2023-04-25T13:56:36;10.55;;;2.42;;
23472;SDS011;11909;52.516;13.564;2023-04-25T13:59:05;5.53;;;2.10;;
23472;SDS011;11909;52.516;13.564;2023-04-25T14:01:34;6.30;;;1.85;;
23472;SDS011;11909;52.516;13.564;2023-04-25T14:04:02;9.20;;;2.03;;
23472;SDS011;11909;52.516;13.564;2023-04-25T14:06:31;14.85;;;2.17;;
23472;SDS011;11909;52.516;13.564;2023-04-25T14:08:59;7.90;;;2.03;;
23472;SDS011;11909;52.516;13.564;2023-04-25T14:11:27;8.85;;;2.10;;
23472;SDS011;11909;52.516;13.564;2023-04-25T14:13:56;5.03;;;2.10;;
23472;SDS011;11909;52.516;13.564;2023-04-25T14:16:23;5.35;;;1.83;;
23472;SDS011;11909;52.516;13.564;2023-04-25T14:18:53;7.18;;;2.15;;
23472;SDS011;11909;52.516;13.564;2023-04-25T14:21:22;6.90;;;1.95;;
23472;SDS011;11909;52.516;13.564;2023-04-25T14:23:51;6.28;;;2.03;;
23472;SDS011;11909;52.516;13.564;2023-04-25T14:26:20;6.75;;;2.10;;
23472;SDS011;11909;52.516;13.564;2023-04-25T14:28:48;8.60;;;2.45;;
23472;SDS011;11909;52.516;13.564;2023-04-25T14:31:15;8.55;;;2.47;;
23472;SDS011;11909;52.516;13.564;2023-04-25T14:33:43;7.88;;;2.17;;
23472;SDS011;11909;52.516;13.564;2023-04-25T14:36:13;5.97;;;2.00;;
23472;SDS011;11909;52.516;13.564;2023-04-25T14:38:41;6.80;;;2.10;;
23472;SDS011;11909;52.516;13.564;2023-04-25T14:41:10;6.97;;;2.25;;
23472;SDS011;11909;52.516;13.564;2023-04-25T14:43:38;5.05;;;1.70;;
23472;SDS011;11909;52.516;13.564;2023-04-25T14:46:06;4.18;;;1.42;;